Clontarf — VZBX — position and weather

sailwx.info

Track history (hours):
 
Tides and Currents Weather Stations Pressure Air Temp Water Temp Dewpoint Dewpoint Depression Visibility Wind Speed Wind Dir Waves Ship Positions

Clontarf

Last reported at 2017-Nov-19 22:37 UTC. Time now 2017-Nov-22 07:33 UTC.
Position S 27°24' E 153°09'.

Length 30 m; draft 5.6 m.

Type: Tug. MMSI: 503379000.

Date/timePositionNaut miles runAvg speedWind from/ knotsBaromVisibWave heightAir tempDewpointWater temp
2017-Nov-19 22:37S 27°24' E 153°09'2 5.2
2017-Nov-19 22:12S 27°22' E 153°10'0 1.3
2017-Nov-19 22:00S 27°22' E 153°10'0 0.5
2017-Nov-19 21:29S 27°22' E 153°10'1 1.8
2017-Nov-19 21:00S 27°21' E 153°11'3 0.5
2017-Nov-19 14:18S 27°24' E 153°09'0 0.0
2017-Nov-19 14:00S 27°24' E 153°09'3 5.2
2017-Nov-19 13:30S 27°22' E 153°11'0 0.3
2017-Nov-19 13:00S 27°22' E 153°11'1 2.1
2017-Nov-19 12:30S 27°21' E 153°11'3 5.5
2017-Nov-19 12:00S 27°23' E 153°10'1 2.2
2017-Nov-19 11:30S 27°24' E 153°09'0 0.0
2017-Nov-18 18:51S 27°24' E 153°09'0 0.0
2017-Nov-18 18:30S 27°24' E 153°09'0 0.0
2017-Nov-18 18:00S 27°24' E 153°09'0 0.0
2017-Nov-18 17:09S 27°24' E 153°09'0 0.0
2017-Nov-18 17:00S 27°24' E 153°09'0 0.0
2017-Nov-18 16:30S 27°24' E 153°09'0 0.0
2017-Nov-18 15:54S 27°24' E 153°09'0 0.0
2017-Nov-18 15:30S 27°24' E 153°09'0 0.0
2017-Nov-18 14:57S 27°24' E 153°09'0 0.0
2017-Nov-18 14:27S 27°24' E 153°09'0 0.0
2017-Nov-18 13:57S 27°24' E 153°09'0 0.0
2017-Nov-18 12:35S 27°24' E 153°09'0 2.0
2017-Nov-18 12:30S 27°24' E 153°09'0 0.6
2017-Nov-18 12:00S 27°24' E 153°09'1 2.0
2017-Nov-18 11:30S 27°23' E 153°09'0 0.8
2017-Nov-18 11:00S 27°23' E 153°10'1 2.0
2017-Nov-18 10:28S 27°24' E 153°09'0 0.0
2017-Nov-18 09:58S 27°24' E 153°09'0 0.0
2017-Nov-18 06:47S 27°24' E 153°09'1 4.0
2017-Nov-18 06:26S 27°23' E 153°10'2 0.2
2017-Nov-17 20:42S 27°24' E 153°09'3 7.5
2017-Nov-17 20:16S 27°27' E 153°06'2 4.2
2017-Nov-17 19:49S 27°27' E 153°04'7 1.4
2017-Nov-17 14:45S 27°22' E 153°10'0 0.5
2017-Nov-17 14:30S 27°22' E 153°11'2 0.1
2017-Nov-16 11:01S 27°24' E 153°09'0 0.0
2017-Nov-16 10:49S 27°24' E 153°09'0 0.0
2017-Nov-15 18:16S 27°24' E 153°09'1 3.1
2017-Nov-15 18:00S 27°23' E 153°09'1 1.6
2017-Nov-15 17:30S 27°24' E 153°09'0 0.0
2017-Nov-15 16:53S 27°24' E 153°09'0 0.0
2017-Nov-15 16:29S 27°24' E 153°09'0 0.0
2017-Nov-15 15:56S 27°24' E 153°09'0 0.0
2017-Nov-15 15:26S 27°24' E 153°09'0 0.0
2017-Nov-15 14:59S 27°24' E 153°09'0 0.0
2017-Nov-15 14:26S 27°24' E 153°09'2 2.2
2017-Nov-15 13:29S 27°26' E 153°08'0 0.1
2017-Nov-15 12:55S 27°26' E 153°08'2 4.7
2017-Nov-15 12:30S 27°24' E 153°09'2 3.9
2017-Nov-15 12:01S 27°22' E 153°10'2 1.0
2017-Nov-15 10:11S 27°24' E 153°09'0 0.0
2017-Nov-15 09:41S 27°24' E 153°09'2 0.4
2017-Nov-15 04:33S 27°22' E 153°10'0 1.4
2017-Nov-15 04:30S 27°22' E 153°10'0 0.2
2017-Nov-15 03:56S 27°22' E 153°10'0 0.2
2017-Nov-15 02:17S 27°22' E 153°10'2 6.0
2017-Nov-15 02:00S 27°23' E 153°09'1 1.8
2017-Nov-15 01:20S 27°22' E 153°10'1 3.0
2017-Nov-15 00:58S 27°23' E 153°09'1 0.1
2017-Nov-14 18:40S 27°24' E 153°09'1 5.5
2017-Nov-14 18:30S 27°25' E 153°09'1 2.3
2017-Nov-14 17:56S 27°26' E 153°08'1 1.6
2017-Nov-14 17:30S 27°25' E 153°08'2 4.3
2017-Nov-14 17:00S 27°23' E 153°09'0 0.0
2017-Nov-14 16:31S 27°23' E 153°09'0 0.0
2017-Nov-14 16:00S 27°23' E 153°09'0 0.0
2017-Nov-14 15:30S 27°23' E 153°09'0 0.0
2017-Nov-14 15:01S 27°23' E 153°09'0 0.0
2017-Nov-14 14:31S 27°23' E 153°09'0 0.0
2017-Nov-14 14:01S 27°23' E 153°09'0 0.0
2017-Nov-14 13:31S 27°23' E 153°09'0 0.5
2017-Nov-14 13:01S 27°23' E 153°10'2 3.1
2017-Nov-14 12:31S 27°22' E 153°11'1 1.2
2017-Nov-14 12:00S 27°22' E 153°10'0 0.1
2017-Nov-14 11:31S 27°22' E 153°10'1 2.2
2017-Nov-14 11:00S 27°21' E 153°11'0 0.5
2017-Nov-14 10:29S 27°22' E 153°11'0 0.0
2017-Nov-14 09:24S 27°22' E 153°11'0 0.0
2017-Nov-14 08:55S 27°22' E 153°11'0 0.2
2017-Nov-14 08:30S 27°22' E 153°11'1 1.7
2017-Nov-14 08:01S 27°21' E 153°11'3 0.7
2017-Nov-14 04:33S 27°23' E 153°10'0 7.0
2017-Nov-14 04:30S 27°23' E 153°09'  
2017-Nov-11 06:40S 27°24' E 153°09'1 5.1
2017-Nov-11 06:30S 27°23' E 153°10'0 0.1
2017-Nov-11 05:57S 27°23' E 153°09'2 3.8
2017-Nov-11 05:29S 27°22' E 153°11'3 0.2
2017-Nov-10 18:52S 27°24' E 153°09'0 0.9
2017-Nov-10 18:26S 27°24' E 153°09'0 0.1
2017-Nov-10 12:38S 27°24' E 153°09'2 8.5
2017-Nov-10 12:28S 27°23' E 153°10'0 0.6
2017-Nov-10 12:00S 27°22' E 153°10'2 3.7
2017-Nov-10 11:30S 27°21' E 153°11'1 1.6
2017-Nov-10 10:59S 27°21' E 153°11'0 0.0
2017-Nov-10 10:29S 27°21' E 153°11'0 0.0
2017-Nov-10 09:59S 27°21' E 153°11'1 1.8
2017-Nov-10 09:30S 27°22' E 153°10'1 1.6
2017-Nov-10 09:00S 27°23' E 153°10'  
Track history (hours):
 
Tides and Currents Weather Stations Pressure Air Temp Water Temp Dewpoint Dewpoint Depression Visibility Wind Speed Wind Dir Waves Ship Positions

Clontarf

Last reported at 2017-Nov-19 22:37 UTC. Time now 2017-Nov-22 07:33 UTC.
Position S 27°24' E 153°09'.

Length 30 m; draft 5.6 m.

Type: Tug. MMSI: 503379000.

Date/timePositionNaut miles runAvg speedWind from/ knotsBaromVisibWave heightAir tempDewpointWater temp
2017-Nov-19 22:37S 27°24' E 153°09'2 5.2
2017-Nov-19 22:12S 27°22' E 153°10'0 1.3
2017-Nov-19 22:00S 27°22' E 153°10'0 0.5
2017-Nov-19 21:29S 27°22' E 153°10'1 1.8
2017-Nov-19 21:00S 27°21' E 153°11'3 0.5
2017-Nov-19 14:18S 27°24' E 153°09'0 0.0
2017-Nov-19 14:00S 27°24' E 153°09'3 5.2
2017-Nov-19 13:30S 27°22' E 153°11'0 0.3
2017-Nov-19 13:00S 27°22' E 153°11'1 2.1
2017-Nov-19 12:30S 27°21' E 153°11'3 5.5
2017-Nov-19 12:00S 27°23' E 153°10'1 2.2
2017-Nov-19 11:30S 27°24' E 153°09'0 0.0
2017-Nov-18 18:51S 27°24' E 153°09'0 0.0
2017-Nov-18 18:30S 27°24' E 153°09'0 0.0
2017-Nov-18 18:00S 27°24' E 153°09'0 0.0
2017-Nov-18 17:09S 27°24' E 153°09'0 0.0
2017-Nov-18 17:00S 27°24' E 153°09'0 0.0
2017-Nov-18 16:30S 27°24' E 153°09'0 0.0
2017-Nov-18 15:54S 27°24' E 153°09'0 0.0
2017-Nov-18 15:30S 27°24' E 153°09'0 0.0
2017-Nov-18 14:57S 27°24' E 153°09'0 0.0
2017-Nov-18 14:27S 27°24' E 153°09'0 0.0
2017-Nov-18 13:57S 27°24' E 153°09'0 0.0
2017-Nov-18 12:35S 27°24' E 153°09'0 2.0
2017-Nov-18 12:30S 27°24' E 153°09'0 0.6
2017-Nov-18 12:00S 27°24' E 153°09'1 2.0
2017-Nov-18 11:30S 27°23' E 153°09'0 0.8
2017-Nov-18 11:00S 27°23' E 153°10'1 2.0
2017-Nov-18 10:28S 27°24' E 153°09'0 0.0
2017-Nov-18 09:58S 27°24' E 153°09'0 0.0
2017-Nov-18 06:47S 27°24' E 153°09'1 4.0
2017-Nov-18 06:26S 27°23' E 153°10'2 0.2
2017-Nov-17 20:42S 27°24' E 153°09'3 7.5
2017-Nov-17 20:16S 27°27' E 153°06'2 4.2
2017-Nov-17 19:49S 27°27' E 153°04'7 1.4
2017-Nov-17 14:45S 27°22' E 153°10'0 0.5
2017-Nov-17 14:30S 27°22' E 153°11'2 0.1
2017-Nov-16 11:01S 27°24' E 153°09'0 0.0
2017-Nov-16 10:49S 27°24' E 153°09'0 0.0
2017-Nov-15 18:16S 27°24' E 153°09'1 3.1
2017-Nov-15 18:00S 27°23' E 153°09'1 1.6
2017-Nov-15 17:30S 27°24' E 153°09'0 0.0
2017-Nov-15 16:53S 27°24' E 153°09'0 0.0
2017-Nov-15 16:29S 27°24' E 153°09'0 0.0
2017-Nov-15 15:56S 27°24' E 153°09'0 0.0
2017-Nov-15 15:26S 27°24' E 153°09'0 0.0
2017-Nov-15 14:59S 27°24' E 153°09'0 0.0
2017-Nov-15 14:26S 27°24' E 153°09'2 2.2
2017-Nov-15 13:29S 27°26' E 153°08'0 0.1
2017-Nov-15 12:55S 27°26' E 153°08'2 4.7
2017-Nov-15 12:30S 27°24' E 153°09'2 3.9
2017-Nov-15 12:01S 27°22' E 153°10'2 1.0
2017-Nov-15 10:11S 27°24' E 153°09'0 0.0
2017-Nov-15 09:41S 27°24' E 153°09'2 0.4
2017-Nov-15 04:33S 27°22' E 153°10'0 1.4
2017-Nov-15 04:30S 27°22' E 153°10'0 0.2
2017-Nov-15 03:56S 27°22' E 153°10'0 0.2
2017-Nov-15 02:17S 27°22' E 153°10'2 6.0
2017-Nov-15 02:00S 27°23' E 153°09'1 1.8
2017-Nov-15 01:20S 27°22' E 153°10'1 3.0
2017-Nov-15 00:58S 27°23' E 153°09'1 0.1
2017-Nov-14 18:40S 27°24' E 153°09'1 5.5
2017-Nov-14 18:30S 27°25' E 153°09'1 2.3
2017-Nov-14 17:56S 27°26' E 153°08'1 1.6
2017-Nov-14 17:30S 27°25' E 153°08'2 4.3
2017-Nov-14 17:00S 27°23' E 153°09'0 0.0
2017-Nov-14 16:31S 27°23' E 153°09'0 0.0
2017-Nov-14 16:00S 27°23' E 153°09'0 0.0
2017-Nov-14 15:30S 27°23' E 153°09'0 0.0
2017-Nov-14 15:01S 27°23' E 153°09'0 0.0
2017-Nov-14 14:31S 27°23' E 153°09'0 0.0
2017-Nov-14 14:01S 27°23' E 153°09'0 0.0
2017-Nov-14 13:31S 27°23' E 153°09'0 0.5
2017-Nov-14 13:01S 27°23' E 153°10'2 3.1
2017-Nov-14 12:31S 27°22' E 153°11'1 1.2
2017-Nov-14 12:00S 27°22' E 153°10'0 0.1
2017-Nov-14 11:31S 27°22' E 153°10'1 2.2
2017-Nov-14 11:00S 27°21' E 153°11'0 0.5
2017-Nov-14 10:29S 27°22' E 153°11'0 0.0
2017-Nov-14 09:24S 27°22' E 153°11'0 0.0
2017-Nov-14 08:55S 27°22' E 153°11'0 0.2
2017-Nov-14 08:30S 27°22' E 153°11'1 1.7
2017-Nov-14 08:01S 27°21' E 153°11'3 0.7
2017-Nov-14 04:33S 27°23' E 153°10'0 7.0
2017-Nov-14 04:30S 27°23' E 153°09'  
2017-Nov-11 06:40S 27°24' E 153°09'1 5.1
2017-Nov-11 06:30S 27°23' E 153°10'0 0.1
2017-Nov-11 05:57S 27°23' E 153°09'2 3.8
2017-Nov-11 05:29S 27°22' E 153°11'3 0.2
2017-Nov-10 18:52S 27°24' E 153°09'0 0.9
2017-Nov-10 18:26S 27°24' E 153°09'0 0.1
2017-Nov-10 12:38S 27°24' E 153°09'2 8.5
2017-Nov-10 12:28S 27°23' E 153°10'0 0.6
2017-Nov-10 12:00S 27°22' E 153°10'2 3.7
2017-Nov-10 11:30S 27°21' E 153°11'1 1.6
2017-Nov-10 10:59S 27°21' E 153°11'0 0.0
2017-Nov-10 10:29S 27°21' E 153°11'0 0.0
2017-Nov-10 09:59S 27°21' E 153°11'1 1.8
2017-Nov-10 09:30S 27°22' E 153°10'1 1.6
2017-Nov-10 09:00S 27°23' E 153°10'  

Dump ship's entire track history